Weather History for Charleston, SC

Change the Weather History Date:

Tuesday, December 4, 2012

  Actual Average (KCHS) Record (KCHS)
Temperature  
Mean Temperature 66 °F 54 °F  
Max Temperature 75 °F 65 °F 80 °F (1982)
Min Temperature 55 °F 43 °F 21 °F (1960)
Degree Days  
Heating Degree Days 0 12  
Month to date heating degree days 46  
Since 1 July heating degree days 338  
Cooling Degree Days 1 0  
Month to date cooling degree days 0  
Year to date cooling degree days 2297  
Growing Degree Days 16 (Base 50)    
Moisture  
Dew Point 58 °F    
Average Humidity 83    
Maximum Humidity 94    
Minimum Humidity 53    
Precipitation  
Precipitation 0.00 in 0.10 in 3.20 in (1941)
Month to date precipitation 0.37  
Year to date precipitation 48.29  
Sea Level Pressure  
Sea Level Pressure 30.29 in    
Wind  
Wind Speed 1 mph (SW)    
Max Wind Speed 9 mph    
Max Gust Speed -    
Visibility 10 miles    
Events      
T = Trace of Precipitation, MM = Missing Value Source: NWS Daily Summary

Daily Weather History Graph

Daily Weather History Graph

Search for Another Location

Airport:

Trip Planner

Search our weather history database for the weather conditions in past years. The results will help you decide how hot, cold, wet, or windy it might be!

Date:

Astronomy

Dec. 04, 2012 Rise Set
Actual Time 7:07 AM EST 5:13 PM EST
Civil Twilight 6:40 AM EST 5:40 PM EST
Nautical Twilight 6:09 AM EST 6:11 PM EST
Astronomical Twilight 5:39 AM EST 6:41 PM EST
Moon 10:47 PM EST (12/4) 11:11 AM EST (12/4)
Length of Visible Light 11h 00m
Length of Day
10h 06m
Waning Gibbous, 69% of the Moon is Illuminated
Dec 4
Waning Gibbous
Dec 6
Last Quarter
Dec 13
New
Dec 20
First Quarter
Dec 28
Full

Hourly Weather History & Observations

Time (EST) Temp. Dew Point Humidity Pressure Visibility Wind Dir Wind Speed Gust Speed Precip Events Conditions
12:15 AM 60.8 °F 59.0 °F 94% 30.30 in 8.0 mi Calm Calm - 0.00 in   Overcast
12:35 AM 62.6 °F 59.0 °F 88% 30.30 in 10.0 mi Calm Calm - 0.00 in   Overcast
12:55 AM 62.6 °F 59.0 °F 88% 30.29 in 10.0 mi Calm Calm - 0.00 in   Overcast
1:15 AM 62.6 °F 59.0 °F 88% 30.29 in 8.0 mi Calm Calm - 0.00 in   Overcast
1:35 AM 60.8 °F 59.0 °F 94% 30.29 in 10.0 mi Calm Calm - 0.00 in   Overcast
1:55 AM 60.8 °F 59.0 °F 94% 30.29 in 7.0 mi Calm Calm - 0.00 in   Overcast
2:15 AM 60.8 °F 59.0 °F 94% 30.29 in 8.0 mi Calm Calm - 0.00 in   Overcast
2:35 AM 60.8 °F 57.2 °F 88% 30.29 in 10.0 mi Calm Calm - 0.00 in   Overcast
2:55 AM 60.8 °F 57.2 °F 88% 30.29 in 10.0 mi Calm Calm - 0.00 in   Overcast
3:15 AM 60.8 °F 59.0 °F 94% 30.29 in 10.0 mi Calm Calm - 0.00 in   Overcast
3:35 AM 60.8 °F 57.2 °F 88% 30.29 in 10.0 mi Calm Calm - 0.00 in   Overcast
3:55 AM 60.8 °F 59.0 °F 94% 30.29 in 10.0 mi West 5.8 mph - 0.00 in   Overcast
4:15 AM 62.6 °F 59.0 °F 88% 30.29 in 10.0 mi Calm Calm - 0.00 in   Overcast
4:35 AM 60.8 °F 57.2 °F 88% 30.28 in 8.0 mi Calm Calm - 0.00 in   Overcast
4:55 AM 59.0 °F 57.2 °F 94% 30.29 in 5.0 mi Calm Calm - 0.00 in   Overcast
5:15 AM 60.8 °F 57.2 °F 88% 30.29 in 9.0 mi Calm Calm - 0.00 in   Overcast
5:35 AM 60.8 °F 57.2 °F 88% 30.29 in 9.0 mi Calm Calm - 0.00 in   Overcast
5:55 AM 60.8 °F 57.2 °F 88% 30.30 in 10.0 mi Calm Calm - 0.00 in   Overcast
6:15 AM 60.8 °F 57.2 °F 88% 30.30 in 10.0 mi Calm Calm - 0.00 in   Overcast
6:35 AM 60.8 °F 57.2 °F 88% 30.31 in 8.0 mi Calm Calm - 0.00 in   Overcast
6:55 AM 60.8 °F 57.2 °F 88% 30.31 in 8.0 mi Calm Calm - 0.00 in   Mostly Cloudy
7:15 AM 60.8 °F 57.2 °F 88% 30.32 in 10.0 mi Calm Calm - 0.00 in   Overcast
7:35 AM 60.8 °F 57.2 °F 88% 30.32 in 10.0 mi Calm Calm - 0.00 in   Overcast
7:55 AM 60.8 °F 59.0 °F 94% 30.33 in 8.0 mi Calm Calm - 0.00 in   Overcast
8:15 AM 62.6 °F 60.8 °F 94% 30.33 in 8.0 mi Calm Calm - 0.00 in   Overcast
8:55 AM 64.4 °F 60.8 °F 88% 30.35 in 10.0 mi Calm Calm - 0.00 in   Overcast
9:15 AM 64.4 °F 60.8 °F 88% 30.35 in 10.0 mi Calm Calm - 0.00 in   Overcast
9:35 AM 64.4 °F 60.8 °F 88% 30.36 in 10.0 mi Calm Calm - 0.00 in   Overcast
9:55 AM 66.2 °F 60.8 °F 83% 30.36 in 10.0 mi Calm Calm - 0.00 in   Overcast
10:15 AM 68.0 °F 60.8 °F 78% 30.36 in 10.0 mi Calm Calm - 0.00 in   Overcast
10:35 AM 68.0 °F 60.8 °F 78% 30.36 in 10.0 mi Calm Calm - 0.00 in   Overcast
10:55 AM 69.8 °F 62.6 °F 78% 30.36 in 10.0 mi Calm Calm - 0.00 in   Overcast
11:15 AM 69.8 °F 62.6 °F 78% 30.35 in 10.0 mi Calm Calm - 0.00 in   Overcast
11:35 AM 73.4 °F 62.6 °F 69% 30.34 in 10.0 mi Calm Calm - 0.00 in   Overcast
11:55 AM 73.4 °F 60.8 °F 65% 30.33 in 10.0 mi Calm Calm - 0.00 in   Overcast
12:15 PM 73.4 °F 60.8 °F 65% 30.32 in 10.0 mi SW 6.9 mph - 0.00 in   Overcast
12:35 PM 73.4 °F 60.8 °F 65% 30.31 in 10.0 mi SW 6.9 mph - 0.00 in   Mostly Cloudy
12:55 PM 73.4 °F 60.8 °F 65% 30.30 in 10.0 mi SW 6.9 mph - 0.00 in   Overcast
1:15 PM 73.4 °F 60.8 °F 65% 30.29 in 10.0 mi Calm Calm - 0.00 in   Overcast
1:35 PM 73.4 °F 60.8 °F 65% 30.29 in 10.0 mi West 6.9 mph - 0.00 in   Overcast
1:55 PM 75.2 °F 59.0 °F 57% 30.28 in 10.0 mi WSW 8.1 mph - 0.00 in   Mostly Cloudy
2:15 PM 73.4 °F 57.2 °F 57% 30.27 in 10.0 mi West 9.2 mph - 0.00 in   Mostly Cloudy
2:35 PM 75.2 °F 59.0 °F 57% 30.27 in 10.0 mi WSW 8.1 mph - 0.00 in   Mostly Cloudy
2:55 PM 75.2 °F 57.2 °F 53% 30.26 in 10.0 mi West 8.1 mph - 0.00 in   Scattered Clouds
3:15 PM 75.2 °F 57.2 °F 53% 30.26 in 10.0 mi West 8.1 mph - 0.00 in   Clear
3:35 PM 73.4 °F 57.2 °F 57% 30.26 in 10.0 mi SW 6.9 mph - 0.00 in   Clear
3:55 PM 73.4 °F 57.2 °F 57% 30.26 in 10.0 mi SW 3.5 mph - 0.00 in   Partly Cloudy
4:15 PM 71.6 °F 60.8 °F 69% 30.26 in 10.0 mi South 4.6 mph - 0.00 in   Partly Cloudy
4:35 PM 68.0 °F 60.8 °F 78% 30.26 in 10.0 mi South 6.9 mph - 0.00 in   Clear
4:55 PM 64.4 °F 59.0 °F 83% 30.26 in 10.0 mi South 6.9 mph - 0.00 in   Clear
5:15 PM 64.4 °F 59.0 °F 83% 30.27 in 10.0 mi SSW 5.8 mph - 0.00 in   Clear
5:55 PM 64.4 °F 59.0 °F 83% 30.26 in 10.0 mi SW 4.6 mph - 0.00 in   Clear
6:15 PM 60.8 °F 57.2 °F 88% 30.27 in 10.0 mi Calm Calm - 0.00 in   Clear
6:35 PM 60.8 °F 57.2 °F 88% 30.27 in 10.0 mi Calm Calm - 0.00 in   Clear
6:55 PM 59.0 °F 57.2 °F 94% 30.27 in 10.0 mi South 4.6 mph - 0.00 in   Clear
7:15 PM 60.8 °F 57.2 °F 88% 30.27 in 10.0 mi Calm Calm - 0.00 in   Clear
7:35 PM 57.2 °F 55.4 °F 94% 30.27 in 10.0 mi Calm Calm - 0.00 in   Clear
7:55 PM 59.0 °F 57.2 °F 94% 30.27 in 10.0 mi Calm Calm - 0.00 in   Mostly Cloudy
8:15 PM 59.0 °F 57.2 °F 94% 30.28 in 10.0 mi Calm Calm - 0.00 in   Overcast
8:35 PM 57.2 °F 55.4 °F 94% 30.28 in 10.0 mi Calm Calm - 0.00 in   Overcast
8:55 PM 60.8 °F 57.2 °F 88% 30.28 in 10.0 mi SSE 4.6 mph - 0.00 in   Scattered Clouds
9:15 PM 60.8 °F 57.2 °F 88% 30.28 in 10.0 mi South 3.5 mph - 0.00 in   Clear
9:35 PM 60.8 °F 57.2 °F 88% 30.28 in 10.0 mi Calm Calm - 0.00 in   Clear
9:55 PM 59.0 °F 57.2 °F 94% 30.27 in 10.0 mi South 3.5 mph - 0.00 in   Clear
10:15 PM 60.8 °F 57.2 °F 88% 30.27 in 10.0 mi Calm Calm - 0.00 in   Clear
10:35 PM 57.2 °F 55.4 °F 94% 30.27 in 5.0 mi Calm Calm - 0.00 in   Clear
10:55 PM 59.0 °F 57.2 °F 94% 30.27 in 9.0 mi Calm Calm - 0.00 in   Clear
11:15 PM 57.2 °F 55.4 °F 94% 30.27 in 7.0 mi Calm Calm - 0.00 in   Clear
11:35 PM 57.2 °F 55.4 °F 94% 30.26 in 10.0 mi Calm Calm - 0.00 in   Clear
11:55 PM 55.4 °F 53.6 °F 94% 30.26 in 10.0 mi Calm Calm - 0.00 in   Clear